createdAt,value
2022-11-05T00:02:22.890Z,94.79
2022-11-05T00:05:08.248Z,95.56
2022-11-05T00:07:58.842Z,96.18
2022-11-05T00:10:28.763Z,96.44
2022-11-05T00:13:16.270Z,97.01
2022-11-05T00:16:01.707Z,96.74
2022-11-05T00:18:29.500Z,97.08
2022-11-05T00:20:57.054Z,97.27
2022-11-05T00:23:43.298Z,97.89
2022-11-05T00:26:12.305Z,97.43
2022-11-05T00:28:43.769Z,97.46
2022-11-05T00:31:13.263Z,98.10
2022-11-05T00:33:42.772Z,98.11
2022-11-05T00:36:12.063Z,97.39
2022-11-05T00:38:40.974Z,97.64
2022-11-05T00:41:08.795Z,97.90
2022-11-05T00:43:53.932Z,98.30
2022-11-05T00:46:21.449Z,98.32
2022-11-05T00:49:06.576Z,98.47
2022-11-05T00:51:34.068Z,98.81
2022-11-05T00:54:03.094Z,98.43
2022-11-05T00:56:30.682Z,98.60
2022-11-05T00:58:58.358Z,99.23
2022-11-05T01:01:26.007Z,98.34
2022-11-05T01:03:53.571Z,99.04
2022-11-05T01:06:21.099Z,99.88
2022-11-05T01:08:48.612Z,98.98
2022-11-05T01:11:33.839Z,99.09
2022-11-05T01:14:02.372Z,99.80
2022-11-05T01:16:30.471Z,100.00
2022-11-05T01:18:57.974Z,100.00
2022-11-05T01:21:25.481Z,99.97
2022-11-05T01:23:53.646Z,100.00
2022-11-05T01:26:22.665Z,100.00
2022-11-05T01:28:51.883Z,100.00
2022-11-05T01:31:19.459Z,100.00
2022-11-05T01:33:47.090Z,100.00
2022-11-05T01:36:14.832Z,100.00
2022-11-05T01:38:42.418Z,100.00
2022-11-05T01:41:10.065Z,100.00
2022-11-05T01:43:49.358Z,100.00
2022-11-05T01:46:20.666Z,100.00
2022-11-05T01:48:50.930Z,100.00
2022-11-05T01:51:20.976Z,100.00
2022-11-05T01:53:53.324Z,100.00
2022-11-05T01:56:25.281Z,100.00
2022-11-05T01:58:57.398Z,100.00
2022-11-05T02:01:25.914Z,100.00
2022-11-05T02:03:56.331Z,100.00
2022-11-05T02:06:23.890Z,100.00
2022-11-05T02:08:58.059Z,100.00
2022-11-05T02:11:25.748Z,100.00
2022-11-05T02:13:54.637Z,100.00
2022-11-05T02:16:32.967Z,100.00
2022-11-05T02:19:12.103Z,100.00
2022-11-05T02:22:00.616Z,100.00
2022-11-05T02:25:11.101Z,100.00
2022-11-05T02:28:06.356Z,100.00
2022-11-05T02:30:43.334Z,100.00
2022-11-05T02:33:27.693Z,100.00
2022-11-05T02:36:06.672Z,100.00
2022-11-05T02:38:46.970Z,100.00
2022-11-05T02:41:24.611Z,100.00
2022-11-05T02:44:06.994Z,100.00
2022-11-05T02:46:46.534Z,100.00
2022-11-05T02:49:23.298Z,100.00
2022-11-05T02:51:57.843Z,100.00
2022-11-05T02:54:29.558Z,100.00
2022-11-05T02:57:00.213Z,100.00
2022-11-05T02:59:27.771Z,100.00
2022-11-05T03:01:58.199Z,100.00
2022-11-05T03:04:27.031Z,100.00
2022-11-05T03:07:08.940Z,100.00
2022-11-05T03:10:00.493Z,100.00
2022-11-05T03:12:33.550Z,100.00
2022-11-05T03:15:13.458Z,100.00
2022-11-05T03:17:50.282Z,100.00
2022-11-05T03:20:22.585Z,100.00
2022-11-05T03:22:54.705Z,100.00
2022-11-05T03:25:25.564Z,100.00
2022-11-05T03:27:57.380Z,100.00
2022-11-05T03:30:26.169Z,100.00
2022-11-05T03:32:59.911Z,100.00
2022-11-05T03:35:31.089Z,100.00
2022-11-05T03:38:03.638Z,100.00
2022-11-05T03:40:35.869Z,100.00
2022-11-05T03:43:06.454Z,100.00
2022-11-05T03:45:37.166Z,100.00
2022-11-05T03:48:10.313Z,100.00
2022-11-05T03:50:41.783Z,100.00
2022-11-05T03:53:16.231Z,100.00
2022-11-05T03:55:52.464Z,100.00
2022-11-05T03:58:22.239Z,100.00
2022-11-05T04:00:51.717Z,100.00
2022-11-05T04:03:20.638Z,100.00
2022-11-05T04:06:09.160Z,100.00
2022-11-05T04:08:54.507Z,100.00
2022-11-05T04:11:39.810Z,100.00
2022-11-05T04:14:07.375Z,100.00
2022-11-05T04:16:52.555Z,100.00
2022-11-05T04:19:42.381Z,100.00
2022-11-05T04:22:27.396Z,100.00
2022-11-05T04:24:54.909Z,100.00
2022-11-05T04:27:22.676Z,100.00
2022-11-05T04:30:07.789Z,100.00
2022-11-05T04:32:35.375Z,100.00
2022-11-05T04:35:04.407Z,100.00
2022-11-05T04:37:32.070Z,100.00
2022-11-05T04:39:59.623Z,100.00
2022-11-05T04:42:28.479Z,100.00
2022-11-05T04:44:56.047Z,100.00
2022-11-05T04:47:23.538Z,100.00
2022-11-05T04:49:51.043Z,100.00
2022-11-05T04:52:19.908Z,100.00
2022-11-05T04:54:47.523Z,100.00
2022-11-05T04:57:15.073Z,100.00
2022-11-05T04:59:42.738Z,100.00
2022-11-05T05:02:10.377Z,100.00
2022-11-05T05:04:37.963Z,100.00
2022-11-05T05:07:05.815Z,100.00
2022-11-05T05:09:34.682Z,100.00
2022-11-05T05:12:02.498Z,100.00
2022-11-05T05:14:30.030Z,100.00
2022-11-05T05:16:57.553Z,100.00
2022-11-05T05:19:25.645Z,100.00
2022-11-05T05:21:52.287Z,100.00
2022-11-05T05:24:21.227Z,100.00
2022-11-05T05:26:51.714Z,100.00
2022-11-05T05:29:19.670Z,100.00
2022-11-05T05:31:47.184Z,100.00
2022-11-05T05:34:15.677Z,100.00
2022-11-05T05:36:43.203Z,100.00
2022-11-05T05:39:11.643Z,100.00
2022-11-05T05:41:39.193Z,100.00
2022-11-05T05:44:08.470Z,100.00
2022-11-05T05:46:36.008Z,100.00
2022-11-05T05:49:06.691Z,100.00
2022-11-05T05:51:38.703Z,100.00
2022-11-05T05:54:06.599Z,99.45
2022-11-05T05:56:34.132Z,99.91
2022-11-05T05:59:01.661Z,100.00
2022-11-05T06:01:30.634Z,100.00
2022-11-05T06:03:58.203Z,100.00
2022-11-05T06:06:25.721Z,100.00
2022-11-05T06:08:53.250Z,100.00
2022-11-05T06:11:20.800Z,100.00
2022-11-05T06:13:48.342Z,100.00
2022-11-05T06:16:16.033Z,100.00
2022-11-05T06:18:44.912Z,96.38
2022-11-05T06:21:14.329Z,97.92
2022-11-05T06:23:44.298Z,99.38
2022-11-05T06:26:13.642Z,99.33
2022-11-05T06:28:42.390Z,99.88
2022-11-05T06:31:10.132Z,100.00
2022-11-05T06:33:37.882Z,100.00
2022-11-05T06:36:08.811Z,100.00
2022-11-05T06:38:37.559Z,100.00
2022-11-05T06:41:10.005Z,99.18
2022-11-05T06:43:38.447Z,99.86
2022-11-05T06:46:06.867Z,99.50
2022-11-05T06:48:35.129Z,98.88
2022-11-05T06:51:02.708Z,99.35
2022-11-05T06:53:31.843Z,99.97
2022-11-05T06:56:03.102Z,100.00
2022-11-05T06:58:31.725Z,100.00
2022-11-05T07:01:02.102Z,100.00
2022-11-05T07:03:29.830Z,100.00
2022-11-05T07:05:59.107Z,100.00
2022-11-05T07:08:26.912Z,100.00
2022-11-05T07:10:55.805Z,100.00
2022-11-05T07:13:23.337Z,100.00
2022-11-05T07:15:50.931Z,100.00
2022-11-05T07:18:18.815Z,100.00
2022-11-05T07:20:46.353Z,100.00
2022-11-05T07:23:15.439Z,100.00
2022-11-05T07:25:44.016Z,100.00
2022-11-05T07:28:14.315Z,100.00
2022-11-05T07:30:41.976Z,100.00
2022-11-05T07:33:10.348Z,100.00
2022-11-05T07:35:38.134Z,100.00
2022-11-05T07:38:05.688Z,100.00
2022-11-05T07:40:33.209Z,100.00
2022-11-05T07:43:02.610Z,100.00
2022-11-05T07:45:32.261Z,100.00
2022-11-05T07:48:01.631Z,100.00
2022-11-05T07:50:31.541Z,100.00
2022-11-05T07:53:03.027Z,100.00
2022-11-05T07:55:31.267Z,99.26
2022-11-05T07:57:59.433Z,98.88
2022-11-05T08:00:28.213Z,98.59
2022-11-05T08:03:07.330Z,98.32
2022-11-05T08:05:38.283Z,98.82
2022-11-05T08:08:07.018Z,100.00
2022-11-05T08:10:35.444Z,97.51
2022-11-05T08:13:03.266Z,97.55
2022-11-05T08:15:30.877Z,94.18
2022-11-05T08:18:00.627Z,94.71
2022-11-05T08:20:28.683Z,95.02
2022-11-05T08:22:56.811Z,93.92
2022-11-05T08:25:25.016Z,94.38
2022-11-05T08:27:56.942Z,95.65
2022-11-05T08:30:24.735Z,95.99
2022-11-05T08:32:52.420Z,95.98
2022-11-05T08:35:21.268Z,95.71
2022-11-05T08:37:48.801Z,95.32
2022-11-05T08:40:16.592Z,99.91
2022-11-05T08:42:44.151Z,95.28
2022-11-05T08:45:11.834Z,93.96
2022-11-05T08:47:39.388Z,92.51
2022-11-05T08:50:07.898Z,92.46
2022-11-05T08:52:36.822Z,92.38
2022-11-05T08:55:04.493Z,92.97
2022-11-05T08:57:31.998Z,92.13
2022-11-05T08:59:59.538Z,93.24
2022-11-05T09:02:27.154Z,94.71
2022-11-05T09:04:54.721Z,93.22
2022-11-05T09:07:22.861Z,95.05
2022-11-05T09:09:51.752Z,95.15
2022-11-05T09:12:19.379Z,94.38
2022-11-05T09:14:46.912Z,93.86
2022-11-05T09:17:18.138Z,92.88
2022-11-05T09:19:46.074Z,93.33
2022-11-05T09:22:13.682Z,91.70
2022-11-05T09:24:41.264Z,92.30
2022-11-05T09:27:11.838Z,91.32
2022-11-05T09:29:39.469Z,91.46
2022-11-05T09:32:07.058Z,90.25
2022-11-05T09:34:35.390Z,92.29
2022-11-05T09:37:03.316Z,91.88
2022-11-05T09:39:30.903Z,92.20
2022-11-05T09:42:03.098Z,93.73
2022-11-05T09:44:38.695Z,91.39
2022-11-05T09:47:09.437Z,90.96
2022-11-05T09:49:40.688Z,91.22
2022-11-05T09:52:14.355Z,90.22
2022-11-05T09:54:42.182Z,91.11
2022-11-05T09:57:16.797Z,91.58
2022-11-05T09:59:49.914Z,91.36
2022-11-05T10:02:20.558Z,90.28
2022-11-05T10:04:51.945Z,90.00
2022-11-05T10:07:23.998Z,89.53
2022-11-05T10:09:57.026Z,89.46
2022-11-05T10:12:29.502Z,88.75
2022-11-05T10:15:08.021Z,88.16
2022-11-05T10:17:39.359Z,88.36
2022-11-05T10:20:15.242Z,88.20
2022-11-05T10:22:48.180Z,88.32
2022-11-05T10:25:19.682Z,86.02
2022-11-05T10:27:52.011Z,84.83
2022-11-05T10:30:21.917Z,85.84
2022-11-05T10:32:53.051Z,84.03
2022-11-05T10:35:23.000Z,84.55
2022-11-05T10:37:51.310Z,83.92
2022-11-05T10:40:30.762Z,84.65
2022-11-05T10:43:05.900Z,82.76
2022-11-05T10:45:46.812Z,83.21
2022-11-05T10:48:33.556Z,83.85
2022-11-05T10:51:02.047Z,82.81
2022-11-05T10:53:33.505Z,83.71
2022-11-05T10:56:01.283Z,83.15
2022-11-05T10:58:31.065Z,82.49
2022-11-05T11:01:13.277Z,82.56
2022-11-05T11:03:44.723Z,83.07
2022-11-05T11:06:24.210Z,83.89
2022-11-05T11:08:53.676Z,84.21
2022-11-05T11:11:31.026Z,81.33
2022-11-05T11:14:07.615Z,80.65
2022-11-05T11:16:39.673Z,81.26
2022-11-05T11:19:25.744Z,81.80
2022-11-05T11:22:20.740Z,79.07
2022-11-05T11:24:50.922Z,78.21
2022-11-05T11:27:23.270Z,76.27
2022-11-05T11:29:57.284Z,74.99
2022-11-05T11:32:32.787Z,72.68
2022-11-05T11:35:01.100Z,71.38
2022-11-05T11:37:31.499Z,71.58
2022-11-05T11:40:04.320Z,71.27
2022-11-05T11:42:34.490Z,71.75
2022-11-05T11:45:07.926Z,73.75
2022-11-05T11:47:36.749Z,73.59
2022-11-05T11:50:04.528Z,72.11
2022-11-05T11:52:34.537Z,75.09
2022-11-05T11:55:19.309Z,75.33
2022-11-05T11:57:49.078Z,74.66
2022-11-05T12:00:17.734Z,74.61
2022-11-05T12:03:02.264Z,74.86
2022-11-05T12:05:37.251Z,75.80
2022-11-05T12:08:17.154Z,76.79
2022-11-05T12:10:55.735Z,77.27
2022-11-05T12:13:41.736Z,76.75
2022-11-05T12:16:20.976Z,76.83
2022-11-05T12:19:00.430Z,77.16
2022-11-05T12:21:51.954Z,79.21
2022-11-05T12:24:37.674Z,77.89
2022-11-05T12:27:18.937Z,77.95
2022-11-05T12:29:56.445Z,78.43
2022-11-05T12:32:56.015Z,79.43
2022-11-05T12:35:44.202Z,77.56
2022-11-05T12:38:27.183Z,78.23
2022-11-05T12:41:07.905Z,75.96
2022-11-05T12:43:47.403Z,83.48
2022-11-05T12:46:26.713Z,76.66
2022-11-05T12:49:19.675Z,77.52
2022-11-05T12:52:04.911Z,72.03
2022-11-05T12:54:48.855Z,73.20
2022-11-05T12:57:17.628Z,72.77
2022-11-05T12:59:52.842Z,72.29
2022-11-05T13:02:27.769Z,70.11
2022-11-05T13:04:59.580Z,70.61
2022-11-05T13:07:34.378Z,72.71
2022-11-05T13:10:06.323Z,72.01
2022-11-05T13:12:39.906Z,72.11
2022-11-05T13:15:11.550Z,71.28
2022-11-05T13:17:50.080Z,73.88
2022-11-05T13:20:22.192Z,73.54
2022-11-05T13:22:56.283Z,74.18
2022-11-05T13:25:26.135Z,74.56
2022-11-05T13:28:00.439Z,74.71
2022-11-05T13:30:32.483Z,77.09
2022-11-05T13:33:06.301Z,76.10
2022-11-05T13:35:45.190Z,76.74
2022-11-05T13:38:39.534Z,77.10
2022-11-05T13:41:22.349Z,76.19
2022-11-05T13:44:06.216Z,75.63
2022-11-05T13:46:40.224Z,78.29
2022-11-05T13:49:16.411Z,78.49
2022-11-05T13:51:50.933Z,78.10
2022-11-05T13:54:51.594Z,79.12
2022-11-05T13:57:34.541Z,79.30
2022-11-05T14:00:12.319Z,79.95
2022-11-05T14:02:44.370Z,78.22
2022-11-05T14:05:24.817Z,78.35
2022-11-05T14:07:54.154Z,75.22
2022-11-05T14:10:36.413Z,75.80
2022-11-05T14:13:17.161Z,75.76
2022-11-05T14:15:57.564Z,75.60
2022-11-05T14:18:40.948Z,72.54
2022-11-05T14:21:31.381Z,70.96
2022-11-05T14:24:00.700Z,69.09
2022-11-05T14:26:36.899Z,69.70
2022-11-05T14:29:26.284Z,69.70
2022-11-05T14:32:08.748Z,67.27
2022-11-05T14:34:49.341Z,68.63
2022-11-05T14:37:31.915Z,66.48
2022-11-05T14:40:18.887Z,67.82
2022-11-05T14:42:53.858Z,68.82
2022-11-05T14:45:28.024Z,68.45
2022-11-05T14:47:58.099Z,66.90
2022-11-05T14:50:36.032Z,67.77
2022-11-05T14:53:23.843Z,68.42
2022-11-05T14:56:00.769Z,68.16
2022-11-05T14:58:32.964Z,69.93
2022-11-05T15:01:02.189Z,69.28
2022-11-05T15:04:01.740Z,70.37
2022-11-05T15:06:32.459Z,72.09
2022-11-05T15:09:23.868Z,72.07
2022-11-05T15:12:15.814Z,71.21
2022-11-05T15:14:55.589Z,70.76
2022-11-05T15:17:29.776Z,71.69
2022-11-05T15:20:02.422Z,72.54
2022-11-05T15:22:37.336Z,75.04
2022-11-05T15:25:06.467Z,76.78
2022-11-05T15:27:49.932Z,76.94
2022-11-05T15:30:21.043Z,77.04
2022-11-05T15:32:48.669Z,78.12
2022-11-05T15:35:26.736Z,78.14
2022-11-05T15:38:01.688Z,78.93
2022-11-05T15:40:31.790Z,79.71
2022-11-05T15:43:09.950Z,81.51
2022-11-05T15:45:39.973Z,82.35
2022-11-05T15:48:14.976Z,83.61
2022-11-05T15:50:42.928Z,84.01
2022-11-05T15:53:44.132Z,84.77
2022-11-05T15:56:11.751Z,85.77
2022-11-05T15:58:41.743Z,86.96
2022-11-05T16:01:21.226Z,86.89
2022-11-05T16:03:49.127Z,88.05
2022-11-05T16:06:16.842Z,88.35
2022-11-05T16:08:49.080Z,89.19
2022-11-05T16:11:24.742Z,90.02
2022-11-05T16:13:53.303Z,90.74
2022-11-05T16:16:33.602Z,90.98
2022-11-05T16:19:01.597Z,91.16
2022-11-05T16:21:29.419Z,91.28
2022-11-05T16:23:58.925Z,92.22
2022-11-05T16:27:00.688Z,92.95
2022-11-05T16:29:23.407Z,92.46
2022-11-05T16:31:55.086Z,92.78
2022-11-05T16:34:27.872Z,93.06
2022-11-05T16:36:57.133Z,93.59
2022-11-05T16:39:25.158Z,93.90
2022-11-05T16:41:52.971Z,94.24
2022-11-05T16:44:21.133Z,94.92
2022-11-05T16:46:50.255Z,95.21
2022-11-05T16:49:19.206Z,95.15
2022-11-05T16:51:46.884Z,95.46
2022-11-05T16:54:14.393Z,95.57
2022-11-05T16:56:42.743Z,96.19
2022-11-05T16:59:13.353Z,95.55
2022-11-05T17:01:43.023Z,95.90
2022-11-05T17:04:13.570Z,96.94
2022-11-05T17:06:43.654Z,96.54
2022-11-05T17:09:11.220Z,96.64
2022-11-05T17:11:38.785Z,96.37
2022-11-05T17:14:06.558Z,97.07
2022-11-05T17:16:34.116Z,96.82
2022-11-05T17:19:01.721Z,96.68
2022-11-05T17:21:29.304Z,97.02
2022-11-05T17:23:58.329Z,97.56
2022-11-05T17:26:25.874Z,97.64
2022-11-05T17:28:53.402Z,96.85
2022-11-05T17:31:21.032Z,97.98
2022-11-05T17:33:48.575Z,97.95
2022-11-05T17:36:16.789Z,98.16
2022-11-05T17:38:44.339Z,98.68
2022-11-05T17:41:14.726Z,100.00
2022-11-05T17:43:42.693Z,100.00
2022-11-05T17:46:12.799Z,100.00
2022-11-05T17:48:40.771Z,100.00
2022-11-05T17:51:10.684Z,100.00
2022-11-05T17:53:38.679Z,100.00
2022-11-05T17:56:09.224Z,99.45
2022-11-05T17:58:38.454Z,98.60
2022-11-05T18:01:06.482Z,98.23
2022-11-05T18:03:34.422Z,98.33
2022-11-05T18:06:02.768Z,98.47
2022-11-05T18:08:30.451Z,98.96
2022-11-05T18:10:58.290Z,98.49
2022-11-05T18:13:26.042Z,99.18
2022-11-05T18:15:55.438Z,99.13
2022-11-05T18:18:23.081Z,99.75
2022-11-05T18:20:50.688Z,98.64
2022-11-05T18:23:18.346Z,98.82
2022-11-05T18:25:45.927Z,98.19
2022-11-05T18:28:13.750Z,97.55
2022-11-05T18:30:41.625Z,97.83
2022-11-05T18:33:10.889Z,98.71
2022-11-05T18:35:42.080Z,99.46
2022-11-05T18:38:09.710Z,99.24
2022-11-05T18:40:37.261Z,100.00
2022-11-05T18:43:04.879Z,99.74
2022-11-05T18:45:33.355Z,100.00
2022-11-05T18:48:01.628Z,100.00
2022-11-05T18:50:31.011Z,100.00
2022-11-05T18:52:58.607Z,100.00
2022-11-05T18:55:26.156Z,100.00
2022-11-05T18:57:53.882Z,100.00
2022-11-05T19:00:21.733Z,100.00
2022-11-05T19:02:49.441Z,100.00
2022-11-05T19:05:32.439Z,100.00
2022-11-05T19:08:01.782Z,100.00
2022-11-05T19:10:29.585Z,100.00
2022-11-05T19:12:57.732Z,100.00
2022-11-05T19:15:25.352Z,100.00
2022-11-05T19:17:52.959Z,100.00
2022-11-05T19:20:20.643Z,100.00
2022-11-05T19:22:48.275Z,100.00
2022-11-05T19:25:17.261Z,100.00
2022-11-05T19:27:44.917Z,100.00
2022-11-05T19:30:12.867Z,100.00
2022-11-05T19:32:40.403Z,100.00
2022-11-05T19:35:08.642Z,100.00
2022-11-05T19:37:36.212Z,100.00
2022-11-05T19:40:03.733Z,100.00
2022-11-05T19:42:32.605Z,100.00
2022-11-05T19:45:16.745Z,100.00
2022-11-05T19:47:47.656Z,100.00
2022-11-05T19:50:15.206Z,100.00
2022-11-05T19:52:42.740Z,100.00
2022-11-05T19:55:12.335Z,100.00
2022-11-05T19:57:41.548Z,100.00
2022-11-05T20:00:10.441Z,100.00
2022-11-05T20:02:38.351Z,100.00
2022-11-05T20:05:06.555Z,100.00
2022-11-05T20:07:34.115Z,100.00
2022-11-05T20:10:01.644Z,100.00
2022-11-05T20:12:29.222Z,100.00
2022-11-05T20:14:58.127Z,100.00
2022-11-05T20:17:25.692Z,100.00
2022-11-05T20:19:53.310Z,100.00
2022-11-05T20:22:20.847Z,100.00
2022-11-05T20:24:48.382Z,100.00
2022-11-05T20:27:15.991Z,100.00
2022-11-05T20:29:43.585Z,100.00
2022-11-05T20:32:12.948Z,100.00
2022-11-05T20:34:40.713Z,100.00
2022-11-05T20:37:08.261Z,100.00
2022-11-05T20:39:35.811Z,100.00
2022-11-05T20:42:03.422Z,100.00
2022-11-05T20:44:30.947Z,100.00
2022-11-05T20:46:58.485Z,100.00
2022-11-05T20:49:27.411Z,100.00
2022-11-05T20:51:54.986Z,100.00
2022-11-05T20:54:22.750Z,100.00
2022-11-05T20:56:50.355Z,100.00
2022-11-05T20:59:17.966Z,100.00
2022-11-05T21:01:45.573Z,100.00
2022-11-05T21:04:13.208Z,100.00
2022-11-05T21:06:42.222Z,100.00
2022-11-05T21:09:09.865Z,100.00
2022-11-05T21:11:51.329Z,100.00
2022-11-05T21:14:18.927Z,100.00
2022-11-05T21:16:46.454Z,100.00
2022-11-05T21:19:15.038Z,100.00
2022-11-05T21:21:43.995Z,100.00
2022-11-05T21:24:11.493Z,100.00
2022-11-05T21:26:39.518Z,100.00
2022-11-05T21:29:07.610Z,100.00
2022-11-05T21:31:36.925Z,100.00
2022-11-05T21:34:05.043Z,100.00
2022-11-05T21:36:32.699Z,100.00
2022-11-05T21:39:01.536Z,100.00
2022-11-05T21:41:29.196Z,100.00
2022-11-05T21:43:57.525Z,100.00
2022-11-05T21:46:25.398Z,100.00
2022-11-05T21:48:53.073Z,100.00
2022-11-05T21:51:38.279Z,100.00
2022-11-05T21:54:24.926Z,100.00
2022-11-05T21:57:11.065Z,100.00
2022-11-05T21:59:51.921Z,100.00
2022-11-05T22:02:22.117Z,100.00
2022-11-05T22:04:51.962Z,100.00
2022-11-05T22:07:21.507Z,100.00
2022-11-05T22:09:50.775Z,100.00
2022-11-05T22:12:18.570Z,100.00
2022-11-05T22:14:46.111Z,100.00
2022-11-05T22:17:14.834Z,100.00
2022-11-05T22:19:42.940Z,100.00
2022-11-05T22:22:10.951Z,100.00
2022-11-05T22:24:39.526Z,100.00
2022-11-05T22:27:13.558Z,100.00
2022-11-05T22:29:41.249Z,100.00
2022-11-05T22:32:08.888Z,100.00
2022-11-05T22:34:36.438Z,100.00
2022-11-05T22:37:04.019Z,100.00
2022-11-05T22:39:31.572Z,100.00
2022-11-05T22:42:04.225Z,100.00
2022-11-05T22:44:36.207Z,100.00
2022-11-05T22:47:03.863Z,100.00
2022-11-05T22:49:31.382Z,100.00
2022-11-05T22:52:01.060Z,100.00
2022-11-05T22:54:28.862Z,100.00
2022-11-05T22:56:56.385Z,100.00
2022-11-05T22:59:24.186Z,100.00
2022-11-05T23:01:53.402Z,100.00
2022-11-05T23:04:21.036Z,100.00
2022-11-05T23:07:06.000Z,100.00
2022-11-05T23:09:52.960Z,100.00
2022-11-05T23:12:23.926Z,100.00
2022-11-05T23:14:52.322Z,100.00
2022-11-05T23:17:39.209Z,100.00
2022-11-05T23:20:26.401Z,100.00
2022-11-05T23:23:11.680Z,100.00
2022-11-05T23:25:39.242Z,100.00
2022-11-05T23:28:09.722Z,100.00
2022-11-05T23:30:58.988Z,100.00
2022-11-05T23:33:27.486Z,100.00
2022-11-05T23:36:12.646Z,100.00
2022-11-05T23:38:40.722Z,100.00
2022-11-05T23:41:26.668Z,100.00
2022-11-05T23:44:11.980Z,100.00
2022-11-05T23:46:57.190Z,100.00
2022-11-05T23:49:26.361Z,100.00
2022-11-05T23:51:53.880Z,100.00
2022-11-05T23:54:21.848Z,100.00
2022-11-05T23:56:49.407Z,100.00
2022-11-05T23:59:16.958Z,100.00
